Time;durP1;ratioP1;P1;durP2;ratioP2;P2;SDS_P1;SDS_P2;PMS_P1;PMS_P2;Temp;Humidity;BMP_temperature;BMP_pressure;BME280_temperature;BME280_humidity;BME280_pressure;Samples;Min_cycle;Max_cycle;Signal;HPM_P1;HPM_P2
2022/05/04 00:01:08;;;;;;;16.83;7.57;;;9.00;99.90;;;;;;5052541;28;20033;-67
2022/05/04 00:03:39;;;;;;;16.58;7.80;;;8.90;99.90;;;;;;5052313;28;20065;-67
2022/05/04 00:06:05;;;;;;;17.27;7.78;;;8.80;99.90;;;;;;5051352;28;20025;-67
2022/05/04 00:08:30;;;;;;;12.98;8.02;;;8.80;99.90;;;;;;5052597;28;20025;-67
2022/05/04 00:10:56;;;;;;;16.73;7.75;;;8.70;99.90;;;;;;5053712;28;20472;-66
2022/05/04 00:13:21;;;;;;;15.93;7.90;;;8.80;99.90;;;;;;5056096;28;20068;-67
2022/05/04 00:15:47;;;;;;;17.50;8.00;;;8.80;99.90;;;;;;5055986;28;20029;-67
2022/05/04 00:18:12;;;;;;;21.63;7.85;;;8.70;99.90;;;;;;5056010;28;20036;-67
2022/05/04 00:20:37;;;;;;;15.65;8.57;;;8.70;99.90;;;;;;5055976;28;20037;-67
2022/05/04 00:23:03;;;;;;;17.83;7.85;;;8.70;99.90;;;;;;5055805;28;20120;-67
2022/05/04 00:25:28;;;;;;;12.25;7.50;;;8.70;99.90;;;;;;5055962;28;20463;-66
2022/05/04 00:27:54;;;;;;;13.35;7.47;;;8.60;99.90;;;;;;5056079;28;20029;-67
2022/05/04 00:30:19;;;;;;;17.10;7.93;;;8.60;99.90;;;;;;5055783;28;20053;-67
2022/05/04 00:32:46;;;;;;;18.10;8.38;;;8.60;99.90;;;;;;5055791;28;20029;-67
2022/05/04 00:35:11;;;;;;;20.08;8.85;;;8.50;99.90;;;;;;5055913;28;20022;-67
2022/05/04 00:37:37;;;;;;;16.40;8.02;;;8.40;99.90;;;;;;5055541;28;20032;-67
2022/05/04 00:40:03;;;;;;;14.85;8.18;;;8.30;99.90;;;;;;5055666;28;20063;-67
2022/05/04 00:42:28;;;;;;;13.63;8.23;;;8.30;99.90;;;;;;5055760;28;20021;-67
2022/05/04 00:44:54;;;;;;;16.20;8.27;;;8.20;99.90;;;;;;5055443;28;20021;-67
2022/05/04 00:47:20;;;;;;;15.90;8.25;;;8.10;99.90;;;;;;5055471;28;20438;-67
2022/05/04 00:49:48;;;;;;;15.38;9.20;;;7.90;99.90;;;;;;5054470;28;20053;-67
2022/05/04 00:52:15;;;;;;;14.30;8.77;;;7.90;99.90;;;;;;5055605;28;20415;-66
2022/05/04 00:54:45;;;;;;;21.77;9.88;;;7.90;99.90;;;;;;5055366;28;20029;-67
2022/05/04 00:57:13;;;;;;;22.25;9.32;;;7.80;99.90;;;;;;5054386;28;20398;-67
2022/05/04 00:59:38;;;;;;;18.60;9.20;;;7.80;99.90;;;;;;5055313;28;20433;-66
2022/05/04 01:02:04;;;;;;;21.85;9.25;;;7.80;99.90;;;;;;5055253;28;20028;-66
2022/05/04 01:04:31;;;;;;;18.15;9.65;;;7.80;99.90;;;;;;5054974;28;20507;-67
2022/05/04 01:06:56;;;;;;;16.45;9.40;;;7.80;99.90;;;;;;5055075;28;20112;-67
2022/05/04 01:09:22;;;;;;;19.40;9.43;;;7.70;99.90;;;;;;5055031;28;20099;-66
2022/05/04 01:11:48;;;;;;;27.38;10.13;;;7.70;99.90;;;;;;5053801;28;20104;-67
2022/05/04 01:14:15;;;;;;;17.30;9.10;;;7.80;99.90;;;;;;5054992;28;20391;-66
2022/05/04 01:16:44;;;;;;;19.98;9.35;;;7.70;99.90;;;;;;5054979;28;20108;-67
2022/05/04 01:19:11;;;;;;;20.98;9.88;;;7.70;99.90;;;;;;5054948;28;20103;-66
2022/05/04 01:21:37;;;;;;;16.75;9.27;;;7.80;99.90;;;;;;5054895;28;20031;-66
2022/05/04 01:24:03;;;;;;;19.42;9.63;;;7.90;99.90;;;;;;5054784;28;20037;-67
2022/05/04 01:26:28;;;;;;;19.85;9.80;;;7.90;99.90;;;;;;5053612;28;20036;-67
2022/05/04 01:28:54;;;;;;;30.33;11.07;;;7.90;99.90;;;;;;5054905;28;20025;-66
2022/05/04 01:31:20;;;;;;;20.25;9.82;;;7.90;99.90;;;;;;5054637;28;20025;-66
2022/05/04 01:33:45;;;;;;;19.60;10.43;;;7.90;99.90;;;;;;5054812;28;20021;-67
2022/05/04 01:36:11;;;;;;;20.27;9.98;;;7.90;99.90;;;;;;5054592;28;20395;-67
2022/05/04 01:38:37;;;;;;;21.73;9.48;;;7.90;99.90;;;;;;5054551;28;20454;-66
2022/05/04 01:41:03;;;;;;;18.00;9.68;;;7.90;99.90;;;;;;5054690;28;20108;-67
2022/05/04 01:43:29;;;;;;;19.70;10.27;;;7.80;99.90;;;;;;5054758;28;20032;-66
2022/05/04 01:45:57;;;;;;;19.35;9.90;;;7.90;99.90;;;;;;5054616;28;20383;-67
2022/05/04 01:48:23;;;;;;;20.30;9.70;;;7.90;99.90;;;;;;5054514;28;20078;-67
2022/05/04 01:50:48;;;;;;;21.50;10.07;;;7.90;99.90;;;;;;5054215;28;20021;-67
2022/05/04 01:53:14;;;;;;;25.75;9.68;;;7.80;99.90;;;;;;5054196;28;20040;-66
2022/05/04 01:55:41;;;;;;;21.75;10.13;;;7.80;99.90;;;;;;5054177;28;20021;-67
2022/05/04 01:58:07;;;;;;;22.50;10.18;;;7.80;99.90;;;;;;5054363;28;20379;-67
2022/05/04 02:00:33;;;;;;;21.02;9.40;;;7.80;99.90;;;;;;5054329;28;20032;-66
2022/05/04 02:03:00;;;;;;;24.42;10.57;;;7.80;99.90;;;;;;5053830;28;20084;-67
2022/05/04 02:05:27;;;;;;;24.00;9.88;;;7.70;99.90;;;;;;5054005;28;20124;-66
2022/05/04 02:07:53;;;;;;;24.65;10.60;;;7.70;99.90;;;;;;5053930;28;20028;-67
2022/05/04 02:10:19;;;;;;;20.83;10.35;;;7.70;99.90;;;;;;5053911;28;20025;-67
2022/05/04 02:12:44;;;;;;;19.58;10.57;;;7.70;99.90;;;;;;5054094;28;20074;-66
2022/05/04 02:15:11;;;;;;;23.98;10.95;;;7.70;99.90;;;;;;5054051;28;20056;-66
2022/05/04 02:17:38;;;;;;;24.65;10.52;;;7.70;99.90;;;;;;5053849;28;20021;-67
2022/05/04 02:20:05;;;;;;;22.67;9.60;;;7.60;99.90;;;;;;5053807;28;20017;-67
2022/05/04 02:22:31;;;;;;;25.40;10.38;;;7.60;99.90;;;;;;5053751;28;20021;-67
2022/05/04 02:24:56;;;;;;;23.55;10.65;;;7.50;99.90;;;;;;5053572;28;20114;-66
2022/05/04 02:27:22;;;;;;;23.25;9.93;;;7.50;99.90;;;;;;5053577;28;20026;-66
2022/05/04 02:29:48;;;;;;;25.85;10.50;;;7.40;99.90;;;;;;5053583;28;20475;-66
2022/05/04 02:32:13;;;;;;;30.42;10.75;;;7.30;99.90;;;;;;5053592;28;20087;-66
2022/05/04 02:40:11;;;;;;;21.83;10.15;;;7.30;99.90;;;;;;5053218;28;20042;-66
2022/05/04 02:42:37;;;;;;;21.90;10.98;;;7.30;99.90;;;;;;5053452;28;20033;-66
2022/05/04 02:45:05;;;;;;;22.58;10.70;;;7.30;99.90;;;;;;5053314;28;20025;-67
2022/05/04 02:47:30;;;;;;;35.03;10.60;;;7.20;99.90;;;;;;5053411;28;20024;-66
2022/05/04 02:49:56;;;;;;;21.13;10.60;;;7.30;99.90;;;;;;5053507;28;20383;-67
2022/05/04 02:52:22;;;;;;;26.77;11.23;;;7.30;99.90;;;;;;5053487;28;20028;-67
2022/05/04 02:54:47;;;;;;;28.77;12.02;;;7.20;99.90;;;;;;5053205;28;20074;-67
2022/05/04 02:57:12;;;;;;;26.63;11.15;;;7.10;99.90;;;;;;5053202;28;20372;-67
2022/05/04 02:59:38;;;;;;;23.85;10.98;;;7.10;99.90;;;;;;5053222;28;20064;-66
2022/05/04 03:02:35;;;;;;;23.08;11.18;;;7.10;99.90;;;;;;5053394;28;20036;-66
2022/05/04 03:04:49;;;;;;;21.98;10.93;;;7.10;99.90;;;;;;5052871;28;20068;-67
2022/05/04 03:07:14;;;;;;;20.90;10.55;;;7.00;99.90;;;;;;5053107;28;20021;-66
2022/05/04 03:09:40;;;;;;;24.38;10.98;;;7.00;99.90;;;;;;5053045;28;20021;-66
2022/05/04 03:12:06;;;;;;;25.50;11.60;;;6.90;99.90;;;;;;5051812;28;20100;-66
2022/05/04 03:14:32;;;;;;;23.85;11.85;;;6.90;99.90;;;;;;5051737;28;20032;-66
2022/05/04 03:16:57;;;;;;;25.80;11.63;;;6.90;99.90;;;;;;5052976;28;20033;-67
2022/05/04 03:19:25;;;;;;;22.30;11.00;;;6.80;99.90;;;;;;5053118;28;20408;-66
2022/05/04 03:21:51;;;;;;;23.33;11.65;;;6.80;99.90;;;;;;5052823;28;20025;-66
2022/05/04 03:24:17;;;;;;;31.52;11.07;;;6.80;99.90;;;;;;5052768;28;20033;-66
2022/05/04 03:26:43;;;;;;;24.88;11.57;;;6.70;99.90;;;;;;5053085;28;20430;-66
2022/05/04 03:29:09;;;;;;;25.13;11.00;;;6.80;99.90;;;;;;5052863;28;20033;-66
2022/05/04 03:31:35;;;;;;;31.35;11.52;;;6.70;99.90;;;;;;5053150;28;20021;-67
2022/05/04 03:34:01;;;;;;;30.73;11.80;;;6.70;99.90;;;;;;5052879;28;20033;-67
2022/05/04 03:36:27;;;;;;;25.48;11.07;;;6.70;99.90;;;;;;5052831;28;20029;-66
2022/05/04 03:38:53;;;;;;;24.70;11.43;;;;;;;;;;5052778;28;20029;-67
2022/05/04 03:41:19;;;;;;;28.27;11.95;;;;;;;;;;5052679;28;20096;-66
2022/05/04 03:43:45;;;;;;;27.50;12.07;;;;;;;;;;5052663;28;20433;-66
2022/05/04 03:48:53;;;;;;;26.92;12.13;;;;;;;;;;5070631;28;20357;-66
2022/05/04 03:51:20;;;;;;;24.98;11.43;;;;;;;;;;5070558;28;20091;-66
2022/05/04 03:53:46;;;;;;;28.17;11.85;;;;;;;;;;5070709;28;20025;-67
2022/05/04 03:56:12;;;;;;;27.45;12.38;;;;;;;;;;5070717;28;20021;-66
2022/05/04 03:58:38;;;;;;;26.15;11.93;;;;;;;;;;5069215;28;20123;-66
2022/05/04 04:01:04;;;;;;;22.23;11.32;;;;;;;;;;5070343;28;20571;-66
2022/05/04 04:03:31;;;;;;;27.17;11.20;;;;;;;;;;5070573;28;20029;-66
2022/05/04 04:05:57;;;;;;;25.25;11.88;;;;;;;;;;5070502;28;20483;-66
2022/05/04 04:08:23;;;;;;;27.00;11.55;;;;;;;;;;5070141;28;20036;-66
2022/05/04 04:10:49;;;;;;;30.55;12.13;;;;;;;;;;5068832;28;20024;-66
2022/05/04 04:13:15;;;;;;;23.77;11.93;;;;;;;;;;5070142;28;20605;-66
2022/05/04 04:15:41;;;;;;;26.80;11.82;;;;;;;;;;5070082;28;20086;-66
2022/05/04 04:18:07;;;;;;;25.20;11.52;;;;;;;;;;5069985;28;20488;-66
2022/05/04 04:23:19;;;;;;;23.08;11.23;;;;;;;;;;5069748;28;20025;-67
2022/05/04 04:25:45;;;;;;;29.08;12.65;;;;;;;;;;5069900;28;20104;-67
2022/05/04 04:28:11;;;;;;;25.05;12.25;;;;;;;;;;5069745;28;20064;-67
2022/05/04 04:30:38;;;;;;;36.63;12.80;;;;;;;;;;5069805;28;20048;-67
2022/05/04 04:33:05;;;;;;;25.10;11.63;;;;;;;;;;5069731;28;20024;-66
2022/05/04 04:35:31;;;;;;;31.48;12.10;;;;;;;;;;5069653;28;20021;-66
2022/05/04 04:37:57;;;;;;;26.48;12.52;;;;;;;;;;5069611;28;20501;-66
2022/05/04 04:40:23;;;;;;;28.00;11.00;;;;;;;;;;5069813;28;20506;-67
2022/05/04 04:42:49;;;;;;;32.92;12.35;;;;;;;;;;5069745;28;20510;-66
2022/05/04 04:45:15;;;;;;;23.25;11.48;;;;;;;;;;5069478;28;20056;-67
2022/05/04 04:47:41;;;;;;;31.85;11.73;;;;;;;;;;5069179;28;20127;-67
2022/05/04 04:50:08;;;;;;;25.05;9.85;;;;;;;;;;5068141;28;20024;-67
2022/05/04 04:52:33;;;;;;;27.50;10.25;;;;;;;;;;5069396;28;20036;-67
2022/05/04 04:54:59;;;;;;;24.55;11.02;;;;;;;;;;5069211;28;20024;-67
2022/05/04 04:57:25;;;;;;;26.48;11.05;;;;;;;;;;5069163;28;20029;-67
2022/05/04 04:59:51;;;;;;;23.45;11.13;;;;;;;;;;5058007;28;20471;-67
2022/05/04 05:02:17;;;;;;;27.30;11.35;;;;;;;;;;5056127;28;20491;-67
2022/05/04 05:04:43;;;;;;;25.42;9.85;;;;;;;;;;5055891;28;20036;-67
2022/05/04 05:07:09;;;;;;;27.10;11.18;;;;;;;;;;5055673;28;20025;-66
2022/05/04 05:09:35;;;;;;;28.60;11.40;;;;;;;;;;5055812;28;20055;-67
2022/05/04 05:12:01;;;;;;;25.27;10.73;;;;;;;;;;5055628;28;20036;-67
2022/05/04 05:17:13;;;;;;;22.45;10.63;;;;;;;;;;5055415;28;20025;-67
2022/05/04 05:19:38;;;;;;;21.83;9.68;;;;;;;;;;5055504;28;20441;-67
2022/05/04 05:22:04;;;;;;;22.98;9.43;;;;;;;;;;5055721;28;20025;-67
2022/05/04 05:24:30;;;;;;;23.42;10.70;;;;;;;;;;5055737;28;20044;-67
2022/05/04 05:26:56;;;;;;;23.85;10.27;;;;;;;;;;5055359;28;20025;-67
2022/05/04 05:29:22;;;;;;;22.67;10.05;;;;;;;;;;5055409;28;20025;-67
2022/05/04 05:31:48;;;;;;;24.67;9.65;;;;;;;;;;5055352;28;20029;-67
2022/05/04 05:34:14;;;;;;;25.25;10.63;;;;;;;;;;5055308;28;20479;-67
2022/05/04 05:36:40;;;;;;;26.75;10.15;;;;;;;;;;5055267;28;20419;-67
2022/05/04 05:39:05;;;;;;;27.38;9.02;;;9.10;99.90;;;;;;5055195;28;20021;-68
2022/05/04 05:41:31;;;;;;;20.13;8.15;;;9.80;99.90;;;;;;5054952;28;20021;-68
2022/05/04 05:43:56;;;;;;;23.98;9.35;;;10.70;99.90;;;;;;5055297;28;20108;-67
2022/05/04 05:46:22;;;;;;;22.05;8.23;;;11.40;99.90;;;;;;5053744;28;20479;-68
2022/05/04 05:48:47;;;;;;;19.23;8.45;;;12.40;99.90;;;;;;5054720;28;20071;-68
2022/05/04 05:51:13;;;;;;;12.18;7.45;;;12.60;99.90;;;;;;5054618;28;20029;-68
2022/05/04 05:53:40;;;;;;;14.05;7.60;;;;;;;;;;5053587;28;20124;-68
2022/05/04 05:56:06;;;;;;;18.75;7.80;;;12.80;99.90;;;;;;5054851;28;20017;-68
2022/05/04 05:58:32;;;;;;;18.40;8.07;;;13.20;99.90;;;;;;5054889;28;20029;-67
2022/05/04 06:00:58;;;;;;;17.33;7.45;;;13.30;99.90;;;;;;5054690;28;20021;-68
2022/05/04 06:03:23;;;;;;;16.90;6.65;;;13.50;99.90;;;;;;5054946;28;20125;-68
2022/05/04 06:05:49;;;;;;;18.83;7.25;;;13.30;99.90;;;;;;5054951;28;20127;-68
2022/05/04 06:08:14;;;;;;;16.75;7.13;;;12.80;99.90;;;;;;5053503;28;20036;-68
2022/05/04 06:10:40;;;;;;;17.92;7.70;;;12.80;99.90;;;;;;5052790;28;20036;-69
2022/05/04 06:13:06;;;;;;;13.85;6.93;;;13.70;99.90;;;;;;5054069;28;20530;-68
2022/05/04 06:15:32;;;;;;;14.45;6.63;;;14.10;99.90;;;;;;5054099;28;20029;-68
2022/05/04 06:17:57;;;;;;;13.90;6.82;;;14.70;99.90;;;;;;5052815;28;20122;-68
2022/05/04 06:20:27;;;;;;;17.58;7.13;;;14.80;99.90;;;;;;5053158;28;20380;-71
2022/05/04 06:22:53;;;;;;;15.30;7.63;;;14.80;99.90;;;;;;5053881;28;20086;-69
2022/05/04 06:25:19;;;;;;;16.83;7.65;;;15.90;99.90;;;;;;5054053;28;20597;-69
2022/05/04 06:27:44;;;;;;;17.58;6.60;;;15.40;99.90;;;;;;5054116;28;20470;-69
2022/05/04 06:35:41;;;;;;;17.98;7.38;;;15.40;99.90;;;;;;5053777;28;20019;-69
2022/05/04 06:38:07;;;;;;;13.40;7.35;;;16.60;99.50;;;;;;5053460;28;20032;-69
2022/05/04 06:40:32;;;;;;;15.10;7.30;;;17.10;98.10;;;;;;5052962;28;20481;-69
2022/05/04 06:42:59;;;;;;;15.30;6.97;;;16.30;98.30;;;;;;5052801;28;20041;-69
2022/05/04 06:45:25;;;;;;;17.00;7.90;;;16.80;97.30;;;;;;5052913;28;20040;-69
2022/05/04 06:47:50;;;;;;;17.45;7.32;;;16.50;96.50;;;;;;5051849;28;20049;-69
2022/05/04 06:50:17;;;;;;;17.30;7.32;;;15.70;99.00;;;;;;5053077;28;20100;-68
2022/05/04 06:52:42;;;;;;;14.40;6.95;;;15.90;98.70;;;;;;5053447;28;20029;-70
2022/05/04 06:55:09;;;;;;;17.20;7.43;;;16.40;98.20;;;;;;5053653;28;20025;-69
2022/05/04 06:57:35;;;;;;;18.33;7.43;;;16.50;96.80;;;;;;5053538;28;20070;-69
2022/05/04 07:00:04;;;;;;;16.42;7.40;;;16.60;97.70;;;;;;5052087;28;20028;-69
2022/05/04 07:02:33;;;;;;;15.32;7.47;;;16.70;97.10;;;;;;5054009;28;20029;-69
2022/05/04 07:04:59;;;;;;;17.00;7.47;;;17.50;95.00;;;;;;5053781;28;20029;-69
2022/05/04 07:07:24;;;;;;;15.45;7.40;;;17.50;94.50;;;;;;5053356;28;20391;-69
2022/05/04 07:09:50;;;;;;;25.55;8.07;;;17.80;93.60;;;;;;5053147;28;20033;-68
2022/05/04 07:12:15;;;;;;;13.90;7.30;;;17.70;94.00;;;;;;5053570;28;20166;-69
2022/05/04 07:14:41;;;;;;;14.63;7.55;;;18.20;92.40;;;;;;5051606;28;20025;-68
2022/05/04 07:17:06;;;;;;;12.50;7.10;;;18.60;92.50;;;;;;5053389;28;20115;-68
2022/05/04 07:19:32;;;;;;;19.20;7.88;;;18.10;90.20;;;;;;5051688;28;20380;-68
2022/05/04 07:21:57;;;;;;;15.65;7.60;;;17.70;92.20;;;;;;5052888;28;20017;-68
2022/05/04 07:24:23;;;;;;;13.45;7.25;;;18.20;91.40;;;;;;5052906;28;20460;-68
2022/05/04 07:26:48;;;;;;;18.33;7.85;;;18.40;89.80;;;;;;5052401;28;20028;-68
2022/05/04 07:29:14;;;;;;;13.50;7.40;;;18.00;92.10;;;;;;5052755;28;20037;-68
2022/05/04 07:31:40;;;;;;;17.27;7.70;;;19.10;89.00;;;;;;5052169;28;20033;-67
2022/05/04 07:34:06;;;;;;;16.48;7.43;;;18.60;88.10;;;;;;5051828;28;20020;-68
2022/05/04 07:36:32;;;;;;;16.02;7.90;;;18.90;90.00;;;;;;5052765;28;20395;-68
2022/05/04 07:38:57;;;;;;;19.23;7.88;;;19.20;86.80;;;;;;5052348;28;20049;-68
2022/05/04 07:44:08;;;;;;;17.05;7.57;;;20.10;83.50;;;;;;5044766;28;20387;-68
2022/05/04 07:46:34;;;;;;;16.38;7.68;;;19.20;85.00;;;;;;5052232;28;20040;-68
2022/05/04 07:49:00;;;;;;;15.00;7.80;;;19.40;84.40;;;;;;5053152;28;20024;-68
2022/05/04 07:51:25;;;;;;;17.25;7.50;;;19.40;82.70;;;;;;5056219;28;20045;-69
2022/05/04 07:53:51;;;;;;;15.35;8.25;;;19.90;83.20;;;;;;5057426;28;20060;-69
2022/05/04 07:56:17;;;;;;;18.35;8.10;;;18.90;87.10;;;;;;5053895;28;20104;-69
2022/05/04 07:58:42;;;;;;;15.88;7.63;;;19.70;84.90;;;;;;5071982;28;20029;-69
2022/05/04 08:04:24;;;;;;;19.15;7.55;;;19.90;81.60;;;;;;5052018;28;20041;-69
2022/05/04 08:06:39;;;;;;;17.20;7.68;;;20.10;82.20;;;;;;5052439;28;20510;-69
2022/05/04 08:09:05;;;;;;;14.23;7.63;;;20.70;78.00;;;;;;5052530;28;20025;-69
2022/05/04 08:11:30;;;;;;;18.70;8.25;;;21.00;78.30;;;;;;5051605;28;20036;-69
2022/05/04 08:13:56;;;;;;;18.42;7.63;;;21.30;77.40;;;;;;5052600;28;20036;-69
2022/05/04 08:16:21;;;;;;;18.38;7.72;;;20.20;77.30;;;;;;5052141;28;20027;-69
2022/05/04 08:18:47;;;;;;;17.08;8.10;;;20.50;80.00;;;;;;5052341;28;20100;-69
2022/05/04 08:21:13;;;;;;;17.02;7.90;;;20.60;78.20;;;;;;5050428;28;20029;-69
2022/05/04 08:23:38;;;;;;;17.15;8.15;;;20.00;79.10;;;;;;5051801;28;20490;-69
2022/05/04 08:26:04;;;;;;;15.93;7.97;;;19.90;81.60;;;;;;5052236;28;20487;-69
2022/05/04 08:28:31;;;;;;;12.00;7.20;;;21.10;78.00;;;;;;5052483;28;20463;-69
2022/05/04 08:30:56;;;;;;;14.13;7.85;;;21.50;76.60;;;;;;5052160;28;20092;-69
2022/05/04 08:33:22;;;;;;;16.88;7.90;;;20.70;77.20;;;;;;5051995;28;20100;-69
2022/05/04 08:35:47;;;;;;;16.13;7.85;;;20.90;75.80;;;;;;5056087;28;20021;-69
2022/05/04 08:38:13;;;;;;;15.63;7.90;;;20.80;76.70;;;;;;5054853;28;20036;-68
2022/05/04 08:40:39;;;;;;;19.35;8.07;;;20.80;77.10;;;;;;5055633;28;20025;-69
2022/05/04 08:43:07;;;;;;;15.25;7.70;;;21.70;74.30;;;;;;5055169;28;20096;-69
2022/05/04 08:45:36;;;;;;;14.35;7.78;;;20.70;75.00;;;;;;5054366;28;20047;-68
2022/05/04 08:48:04;;;;;;;17.02;8.00;;;20.90;77.60;;;;;;5054379;28;20041;-69
2022/05/04 08:50:31;;;;;;;16.23;7.85;;;21.40;75.40;;;;;;5055814;28;20052;-69
2022/05/04 08:52:56;;;;;;;14.02;7.75;;;22.30;72.30;;;;;;5056161;28;20474;-69
2022/05/04 08:55:23;;;;;;;18.55;8.30;;;22.10;71.30;;;;;;5056289;28;20025;-68
2022/05/04 08:57:50;;;;;;;14.70;7.97;;;21.00;74.70;;;;;;5054205;28;20029;-69
2022/05/04 09:00:17;;;;;;;17.88;8.55;;;21.60;74.40;;;;;;5055870;28;20036;-68
2022/05/04 09:02:42;;;;;;;13.25;8.00;;;22.10;72.90;;;;;;5055137;28;20029;-69
2022/05/04 09:05:14;;;;;;;15.13;8.50;;;21.90;72.90;;;;;;5055222;28;20502;-69
2022/05/04 09:07:39;;;;;;;15.05;8.27;;;22.10;73.30;;;;;;5054688;28;20169;-68
2022/05/04 09:10:06;;;;;;;18.42;8.73;;;21.70;72.40;;;;;;5055736;28;20025;-69
2022/05/04 09:12:32;;;;;;;15.15;8.32;;;21.30;74.30;;;;;;5055080;28;20033;-69
2022/05/04 09:14:59;;;;;;;16.65;8.38;;;21.60;74.50;;;;;;5054440;28;20032;-69
2022/05/04 09:17:25;;;;;;;15.15;8.15;;;21.90;72.40;;;;;;5054145;28;20043;-69
2022/05/04 09:22:40;;;;;;;16.40;8.88;;;21.20;74.40;;;;;;5040103;28;20021;-68
2022/05/04 09:25:17;;;;;;;18.60;9.48;;;20.70;77.30;;;;;;5054883;28;20551;-68
2022/05/04 09:27:44;;;;;;;15.52;9.88;;;20.70;75.70;;;;;;5053349;28;20068;-69
2022/05/04 09:30:09;;;;;;;15.57;8.63;;;21.70;76.70;;;;;;5054192;28;20032;-68
2022/05/04 09:32:39;;;;;;;15.45;8.20;;;21.70;73.90;;;;;;5053794;28;20024;-69
2022/05/04 09:35:10;;;;;;;14.95;8.52;;;22.00;73.50;;;;;;5054475;28;20029;-69
2022/05/04 09:45:55;;;;;;;12.82;8.40;;;21.60;78.40;;;;;;5053883;28;20056;-69
2022/05/04 09:48:36;;;;;;;18.00;9.35;;;22.30;74.00;;;;;;5054182;28;20576;-68
2022/05/04 09:51:05;;;;;;;14.75;9.10;;;21.60;73.20;;;;;;5067166;28;20394;-69
2022/05/04 09:53:31;;;;;;;15.48;9.65;;;21.90;75.50;;;;;;5053915;28;20029;-69
2022/05/04 09:55:58;;;;;;;17.58;9.43;;;22.00;74.80;;;;;;5054962;28;20025;-68
2022/05/04 09:58:26;;;;;;;14.50;9.05;;;22.00;75.50;;;;;;5053685;28;20059;-68
2022/05/04 10:00:52;;;;;;;14.75;9.93;;;21.90;70.70;;;;;;5054002;28;20021;-69
2022/05/04 10:03:20;;;;;;;16.17;8.80;;;22.00;73.20;;;;;;5053883;28;20028;-69
2022/05/04 10:05:46;;;;;;;18.55;10.20;;;22.30;72.40;;;;;;5054170;28;20497;-67
2022/05/04 10:08:12;;;;;;;16.48;9.77;;;20.50;75.30;;;;;;5053989;28;20025;-67
2022/05/04 10:10:40;;;;;;;17.42;9.73;;;20.80;78.80;;;;;;5051830;28;20036;-68
2022/05/04 10:13:07;;;;;;;15.55;10.13;;;22.20;74.90;;;;;;5054256;28;20104;-68
2022/05/04 10:15:34;;;;;;;22.27;10.73;;;21.60;73.80;;;;;;5045153;28;20113;-68
2022/05/04 10:18:07;;;;;;;16.75;10.40;;;22.10;75.00;;;;;;5051212;28;20522;-69
2022/05/04 10:21:07;;;;;;;17.10;10.07;;;22.40;73.30;;;;;;5051840;28;20036;-69
2022/05/04 10:23:42;;;;;;;18.67;10.00;;;21.90;72.10;;;;;;5047798;28;20041;-69
2022/05/04 10:26:12;;;;;;;18.30;10.15;;;22.20;72.20;;;;;;5040056;28;20483;-70
2022/05/04 10:28:42;;;;;;;14.95;9.63;;;22.60;72.20;;;;;;5052844;28;20498;-71
2022/05/04 10:31:11;;;;;;;17.52;10.63;;;23.40;70.50;;;;;;5034368;28;20540;-70
2022/05/04 10:33:38;;;;;;;15.13;10.25;;;22.50;70.90;;;;;;5050825;28;20031;-69
2022/05/04 10:36:15;;;;;;;20.67;10.57;;;22.60;71.80;;;;;;5051775;28;20029;-72
2022/05/04 10:38:43;;;;;;;19.00;12.13;;;22.10;70.60;;;;;;5051676;28;20368;-70
2022/05/04 10:41:09;;;;;;;18.83;11.10;;;21.20;73.20;;;;;;5051116;28;20029;-70
2022/05/04 10:43:40;;;;;;;20.50;12.32;;;21.40;76.00;;;;;;5052490;28;20035;-71
2022/05/04 10:46:10;;;;;;;17.27;10.70;;;21.30;75.30;;;;;;5053578;28;20450;-70
2022/05/04 10:48:40;;;;;;;21.25;12.40;;;21.70;74.80;;;;;;5052620;28;20465;-70
2022/05/04 10:51:24;;;;;;;20.10;13.98;;;21.40;75.80;;;;;;5053303;28;20479;-70
2022/05/04 10:53:54;;;;;;;19.02;14.48;;;20.80;75.20;;;;;;5053872;28;20049;-70
2022/05/04 10:56:22;;;;;;;21.52;13.70;;;21.40;75.20;;;;;;5052357;28;20025;-69
2022/05/04 11:01:34;;;;;;;23.77;15.80;;;20.90;76.80;;;;;;5111121;27;20380;-70
2022/05/04 11:04:22;;;;;;;23.80;14.30;;;19.60;79.60;;;;;;5110935;28;20034;-70
2022/05/04 11:07:04;;;;;;;21.13;15.23;;;20.50;80.50;;;;;;5111025;28;20458;-70
2022/05/04 11:09:33;;;;;;;21.30;13.88;;;20.40;77.60;;;;;;5110895;28;20535;-70
2022/05/04 11:12:01;;;;;;;20.73;14.25;;;20.50;78.10;;;;;;5110716;28;20115;-70
2022/05/04 11:14:27;;;;;;;20.27;14.05;;;20.20;79.20;;;;;;5109293;28;20343;-70
2022/05/04 11:16:56;;;;;;;23.77;13.95;;;20.40;80.40;;;;;;5110123;28;20474;-69
2022/05/04 11:19:26;;;;;;;19.08;13.18;;;20.50;80.60;;;;;;5110011;28;20036;-69
2022/05/04 11:21:52;;;;;;;23.05;15.25;;;20.50;80.70;;;;;;5090416;28;20025;-70
2022/05/04 11:24:18;;;;;;;25.08;15.65;;;19.70;82.00;;;;;;5097100;28;20466;-69
2022/05/04 11:26:47;;;;;;;23.73;15.07;;;19.10;84.90;;;;;;5130026;28;20024;-69
2022/05/04 11:29:17;;;;;;;25.48;15.18;;;19.70;88.00;;;;;;5131040;27;20027;-69
2022/05/04 11:31:46;;;;;;;23.95;15.60;;;20.20;83.50;;;;;;5130911;27;20031;-69
2022/05/04 11:34:16;;;;;;;26.27;14.68;;;20.20;84.80;;;;;;5131120;27;20028;-69
2022/05/04 11:36:45;;;;;;;24.80;14.80;;;20.30;84.40;;;;;;5120843;28;20072;-69
2022/05/04 11:39:15;;;;;;;26.73;15.50;;;20.60;81.50;;;;;;5110397;28;20031;-69
2022/05/04 11:41:44;;;;;;;23.30;15.48;;;20.40;81.10;;;;;;5110449;28;20030;-69
2022/05/04 11:44:10;;;;;;;22.33;14.48;;;19.60;83.80;;;;;;5110374;28;20450;-69
2022/05/04 11:46:35;;;;;;;24.90;15.43;;;19.20;89.10;;;;;;5110130;28;20023;-69
2022/05/04 11:49:01;;;;;;;24.70;16.13;;;18.80;88.50;;;;;;5110056;28;20034;-69
2022/05/04 11:51:26;;;;;;;27.60;15.48;;;18.80;90.00;;;;;;5109705;28;20034;-69
2022/05/04 11:53:52;;;;;;;23.20;15.10;;;19.40;90.10;;;;;;5109808;28;20473;-69
2022/05/04 11:56:18;;;;;;;25.02;16.30;;;19.20;90.00;;;;;;5109916;28;20048;-69
2022/05/04 11:58:43;;;;;;;26.80;15.88;;;18.90;89.60;;;;;;5109868;28;20574;-69
2022/05/04 12:01:09;;;;;;;23.55;14.93;;;18.90;89.80;;;;;;5109494;28;20051;-69
2022/05/04 12:03:38;;;;;;;24.58;16.58;;;19.10;91.70;;;;;;5109350;28;20024;-69
2022/05/04 12:06:09;;;;;;;29.95;17.85;;;18.60;90.50;;;;;;5107925;28;20020;-68
2022/05/04 12:08:36;;;;;;;25.63;16.70;;;19.10;90.10;;;;;;5108548;28;20062;-69
2022/05/04 12:11:05;;;;;;;26.10;17.10;;;19.90;90.00;;;;;;5107516;28;20038;-69
2022/05/04 12:13:31;;;;;;;24.52;16.52;;;19.70;87.70;;;;;;5096133;28;20420;-69
2022/05/04 12:15:58;;;;;;;25.58;15.80;;;19.10;88.70;;;;;;5096161;28;20020;-69
2022/05/04 12:18:29;;;;;;;25.63;16.05;;;19.40;88.00;;;;;;5096161;28;20025;-69
2022/05/04 12:20:55;;;;;;;22.20;14.98;;;19.30;87.10;;;;;;5096080;28;20470;-69
2022/05/04 12:23:22;;;;;;;24.77;17.33;;;19.90;89.30;;;;;;5095918;28;20024;-69
2022/05/04 12:25:48;;;;;;;22.50;18.35;;;20.30;85.40;;;;;;5096081;28;20021;-69
2022/05/04 12:28:13;;;;;;;26.23;20.13;;;20.40;83.60;;;;;;5096041;28;20024;-68
2022/05/04 12:33:35;;;;;;;28.95;18.23;;;20.00;85.50;;;;;;5095471;28;20058;-68
2022/05/04 12:36:05;;;;;;;24.85;17.33;;;19.20;87.60;;;;;;5095516;28;20077;-69
2022/05/04 12:38:33;;;;;;;26.95;19.73;;;19.10;89.90;;;;;;5095795;28;20512;-69
2022/05/04 12:41:01;;;;;;;27.80;19.80;;;18.70;90.80;;;;;;5095730;28;20111;-69
2022/05/04 12:43:30;;;;;;;26.92;19.80;;;18.50;90.80;;;;;;5095576;28;20024;-69
2022/05/04 12:45:56;;;;;;;30.67;18.17;;;18.80;91.10;;;;;;5095251;28;20038;-69
2022/05/04 12:48:25;;;;;;;27.67;18.73;;;18.90;90.70;;;;;;5095265;28;20111;-68
2022/05/04 12:50:53;;;;;;;30.70;18.45;;;19.00;90.40;;;;;;5095586;28;20024;-69
2022/05/04 12:53:19;;;;;;;27.15;17.73;;;18.80;90.10;;;;;;5095521;28;20118;-68
2022/05/04 12:58:30;;;;;;;30.45;21.23;;;18.60;90.60;;;;;;5109452;28;20413;-69
2022/05/04 13:00:55;;;;;;;33.53;21.42;;;18.70;90.80;;;;;;5094347;28;20032;-69
2022/05/04 13:03:21;;;;;;;31.65;21.55;;;18.30;91.60;;;;;;5095215;28;20039;-68
2022/05/04 13:05:46;;;;;;;28.83;20.58;;;18.50;91.30;;;;;;5094437;28;20028;-68
2022/05/04 13:08:12;;;;;;;29.92;20.33;;;18.70;90.60;;;;;;5094408;28;20398;-69
2022/05/04 13:10:38;;;;;;;28.20;20.27;;;18.80;88.70;;;;;;5093752;28;20088;-68
2022/05/04 13:13:03;;;;;;;26.67;19.77;;;18.80;87.20;;;;;;5094571;28;20028;-68
2022/05/04 13:15:29;;;;;;;26.65;19.95;;;19.10;88.50;;;;;;5094974;28;20089;-68
2022/05/04 13:17:55;;;;;;;29.02;20.75;;;19.40;86.40;;;;;;5094259;28;20535;-68
2022/05/04 13:20:21;;;;;;;27.35;19.60;;;19.60;82.70;;;;;;5093359;28;20024;-68
2022/05/04 13:22:47;;;;;;;26.83;18.23;;;19.40;82.00;;;;;;5093797;28;20020;-68
2022/05/04 13:25:15;;;;;;;24.45;17.38;;;19.20;80.70;;;;;;5094132;28;20027;-68
2022/05/04 13:27:40;;;;;;;21.90;15.82;;;19.30;83.70;;;;;;5094533;28;20028;-67
2022/05/04 13:30:07;;;;;;;27.95;16.25;;;19.60;81.40;;;;;;5094411;28;20536;-68
2022/05/04 13:32:32;;;;;;;27.30;16.15;;;19.70;80.20;;;;;;5094359;28;20020;-68